sensor_id;sensor_type;location;lat;lon;timestamp;P1;durP1;ratioP1;P2;durP2;ratioP2
10230;SDS011;62604;49.432;8.680;2023-06-22T00:00:13;10.60;;;9.90;;
10230;SDS011;62604;49.432;8.680;2023-06-22T00:02:40;11.43;;;10.50;;
10230;SDS011;62604;49.432;8.680;2023-06-22T00:05:08;11.70;;;10.70;;
10230;SDS011;62604;49.432;8.680;2023-06-22T00:07:35;10.55;;;9.75;;
10230;SDS011;62604;49.432;8.680;2023-06-22T00:10:02;11.20;;;10.40;;
10230;SDS011;62604;49.432;8.680;2023-06-22T00:12:29;10.90;;;10.10;;
10230;SDS011;62604;49.432;8.680;2023-06-22T00:14:57;11.20;;;10.40;;
10230;SDS011;62604;49.432;8.680;2023-06-22T00:17:24;10.60;;;9.90;;
10230;SDS011;62604;49.432;8.680;2023-06-22T00:19:51;11.45;;;10.55;;
10230;SDS011;62604;49.432;8.680;2023-06-22T00:22:21;11.27;;;10.38;;
10230;SDS011;62604;49.432;8.680;2023-06-22T00:24:53;10.55;;;9.70;;
10230;SDS011;62604;49.432;8.680;2023-06-22T00:27:21;11.10;;;10.30;;
10230;SDS011;62604;49.432;8.680;2023-06-22T00:29:48;10.80;;;10.00;;
10230;SDS011;62604;49.432;8.680;2023-06-22T00:32:15;11.05;;;10.25;;
10230;SDS011;62604;49.432;8.680;2023-06-22T00:34:42;10.90;;;10.20;;
10230;SDS011;62604;49.432;8.680;2023-06-22T00:37:09;11.40;;;10.40;;
10230;SDS011;62604;49.432;8.680;2023-06-22T00:39:38;11.15;;;10.30;;
10230;SDS011;62604;49.432;8.680;2023-06-22T00:42:05;11.60;;;10.43;;
10230;SDS011;62604;49.432;8.680;2023-06-22T00:44:32;11.45;;;10.50;;
10230;SDS011;62604;49.432;8.680;2023-06-22T00:46:59;11.15;;;10.35;;
10230;SDS011;62604;49.432;8.680;2023-06-22T00:49:26;11.05;;;10.15;;
10230;SDS011;62604;49.432;8.680;2023-06-22T00:51:53;11.30;;;10.50;;
10230;SDS011;62604;49.432;8.680;2023-06-22T00:54:20;10.90;;;10.10;;
10230;SDS011;62604;49.432;8.680;2023-06-22T00:56:51;11.63;;;10.52;;
10230;SDS011;62604;49.432;8.680;2023-06-22T00:59:21;11.23;;;10.32;;
10230;SDS011;62604;49.432;8.680;2023-06-22T01:01:48;12.80;;;11.50;;
10230;SDS011;62604;49.432;8.680;2023-06-22T01:04:14;14.30;;;13.07;;
10230;SDS011;62604;49.432;8.680;2023-06-22T01:06:45;16.92;;;15.43;;
10230;SDS011;62604;49.432;8.680;2023-06-22T01:09:20;17.55;;;16.05;;
10230;SDS011;62604;49.432;8.680;2023-06-22T01:11:52;19.50;;;17.88;;
10230;SDS011;62604;49.432;8.680;2023-06-22T01:14:23;18.05;;;16.52;;
10230;SDS011;62604;49.432;8.680;2023-06-22T01:16:54;17.88;;;16.27;;
10230;SDS011;62604;49.432;8.680;2023-06-22T01:19:29;18.05;;;16.65;;
10230;SDS011;62604;49.432;8.680;2023-06-22T01:22:04;16.65;;;15.25;;
10230;SDS011;62604;49.432;8.680;2023-06-22T01:24:41;17.10;;;15.60;;
10230;SDS011;62604;49.432;8.680;2023-06-22T01:27:21;16.48;;;14.88;;
10230;SDS011;62604;49.432;8.680;2023-06-22T01:30:08;16.02;;;14.52;;
10230;SDS011;62604;49.432;8.680;2023-06-22T01:32:37;15.90;;;14.57;;
10230;SDS011;62604;49.432;8.680;2023-06-22T01:35:06;16.42;;;14.73;;
10230;SDS011;62604;49.432;8.680;2023-06-22T01:37:35;16.20;;;14.80;;
10230;SDS011;62604;49.432;8.680;2023-06-22T01:40:04;15.52;;;13.98;;
10230;SDS011;62604;49.432;8.680;2023-06-22T01:42:32;15.82;;;14.45;;
10230;SDS011;62604;49.432;8.680;2023-06-22T01:45:00;15.80;;;14.45;;
10230;SDS011;62604;49.432;8.680;2023-06-22T01:47:29;16.52;;;15.15;;
10230;SDS011;62604;49.432;8.680;2023-06-22T01:49:57;15.50;;;14.30;;
10230;SDS011;62604;49.432;8.680;2023-06-22T01:52:24;15.57;;;14.30;;
10230;SDS011;62604;49.432;8.680;2023-06-22T01:54:51;14.48;;;13.32;;
10230;SDS011;62604;49.432;8.680;2023-06-22T01:57:18;15.45;;;14.05;;
10230;SDS011;62604;49.432;8.680;2023-06-22T01:59:47;15.23;;;13.82;;
10230;SDS011;62604;49.432;8.680;2023-06-22T02:02:19;14.77;;;13.32;;
10230;SDS011;62604;49.432;8.680;2023-06-22T02:04:54;14.55;;;13.30;;
10230;SDS011;62604;49.432;8.680;2023-06-22T02:07:26;15.90;;;14.40;;
10230;SDS011;62604;49.432;8.680;2023-06-22T02:09:58;14.95;;;13.73;;
10230;SDS011;62604;49.432;8.680;2023-06-22T02:12:28;14.43;;;13.32;;
10230;SDS011;62604;49.432;8.680;2023-06-22T02:14:57;14.35;;;13.25;;
10230;SDS011;62604;49.432;8.680;2023-06-22T02:17:26;13.82;;;12.68;;
10230;SDS011;62604;49.432;8.680;2023-06-22T02:19:54;14.30;;;13.10;;
10230;SDS011;62604;49.432;8.680;2023-06-22T02:22:21;13.52;;;12.52;;
10230;SDS011;62604;49.432;8.680;2023-06-22T02:24:48;13.45;;;12.45;;
10230;SDS011;62604;49.432;8.680;2023-06-22T02:27:15;14.45;;;13.27;;
10230;SDS011;62604;49.432;8.680;2023-06-22T02:29:42;13.48;;;12.48;;
10230;SDS011;62604;49.432;8.680;2023-06-22T02:32:09;13.55;;;12.50;;
10230;SDS011;62604;49.432;8.680;2023-06-22T02:34:36;13.55;;;12.45;;
10230;SDS011;62604;49.432;8.680;2023-06-22T02:37:04;13.25;;;12.15;;
10230;SDS011;62604;49.432;8.680;2023-06-22T02:39:31;14.20;;;12.90;;
10230;SDS011;62604;49.432;8.680;2023-06-22T02:41:58;13.27;;;12.18;;
10230;SDS011;62604;49.432;8.680;2023-06-22T02:44:25;12.75;;;11.77;;
10230;SDS011;62604;49.432;8.680;2023-06-22T02:46:52;13.07;;;11.88;;
10230;SDS011;62604;49.432;8.680;2023-06-22T02:49:20;12.93;;;11.82;;
10230;SDS011;62604;49.432;8.680;2023-06-22T02:51:47;12.85;;;11.75;;
10230;SDS011;62604;49.432;8.680;2023-06-22T02:54:16;11.95;;;11.05;;
10230;SDS011;62604;49.432;8.680;2023-06-22T02:56:43;12.55;;;11.65;;
10230;SDS011;62604;49.432;8.680;2023-06-22T02:59:10;12.27;;;11.38;;
10230;SDS011;62604;49.432;8.680;2023-06-22T03:01:37;12.80;;;11.80;;
10230;SDS011;62604;49.432;8.680;2023-06-22T03:04:06;13.23;;;12.10;;
10230;SDS011;62604;49.432;8.680;2023-06-22T03:06:33;12.23;;;11.23;;
10230;SDS011;62604;49.432;8.680;2023-06-22T03:09:01;12.25;;;11.45;;
10230;SDS011;62604;49.432;8.680;2023-06-22T03:11:31;12.23;;;11.32;;
10230;SDS011;62604;49.432;8.680;2023-06-22T03:13:58;12.40;;;11.40;;
10230;SDS011;62604;49.432;8.680;2023-06-22T03:16:26;12.50;;;11.35;;
10230;SDS011;62604;49.432;8.680;2023-06-22T03:18:53;12.13;;;11.23;;
10230;SDS011;62604;49.432;8.680;2023-06-22T03:21:21;13.25;;;12.15;;
10230;SDS011;62604;49.432;8.680;2023-06-22T03:23:49;11.93;;;11.02;;
10230;SDS011;62604;49.432;8.680;2023-06-22T03:26:16;12.50;;;11.60;;
10230;SDS011;62604;49.432;8.680;2023-06-22T03:28:45;12.27;;;11.27;;
10230;SDS011;62604;49.432;8.680;2023-06-22T03:31:12;12.98;;;11.93;;
10230;SDS011;62604;49.432;8.680;2023-06-22T03:33:39;12.88;;;11.73;;
10230;SDS011;62604;49.432;8.680;2023-06-22T03:36:06;13.02;;;12.02;;
10230;SDS011;62604;49.432;8.680;2023-06-22T03:38:38;13.27;;;12.18;;
10230;SDS011;62604;49.432;8.680;2023-06-22T03:41:10;13.30;;;12.10;;
10230;SDS011;62604;49.432;8.680;2023-06-22T03:43:41;12.63;;;11.70;;
10230;SDS011;62604;49.432;8.680;2023-06-22T03:46:10;12.82;;;11.85;;
10230;SDS011;62604;49.432;8.680;2023-06-22T03:48:37;12.82;;;11.82;;
10230;SDS011;62604;49.432;8.680;2023-06-22T03:51:04;12.93;;;11.77;;
10230;SDS011;62604;49.432;8.680;2023-06-22T03:53:31;11.98;;;11.07;;
10230;SDS011;62604;49.432;8.680;2023-06-22T03:55:58;12.63;;;11.48;;
10230;SDS011;62604;49.432;8.680;2023-06-22T03:58:26;12.98;;;11.98;;
10230;SDS011;62604;49.432;8.680;2023-06-22T04:00:59;13.00;;;11.68;;
10230;SDS011;62604;49.432;8.680;2023-06-22T04:03:30;12.88;;;11.77;;
10230;SDS011;62604;49.432;8.680;2023-06-22T04:05:57;12.65;;;11.65;;
10230;SDS011;62604;49.432;8.680;2023-06-22T04:08:24;12.98;;;11.98;;
10230;SDS011;62604;49.432;8.680;2023-06-22T04:10:50;12.30;;;11.40;;
10230;SDS011;62604;49.432;8.680;2023-06-22T04:13:17;12.10;;;11.18;;
10230;SDS011;62604;49.432;8.680;2023-06-22T04:15:44;12.38;;;11.48;;
10230;SDS011;62604;49.432;8.680;2023-06-22T04:18:11;12.48;;;11.48;;
10230;SDS011;62604;49.432;8.680;2023-06-22T04:20:40;12.68;;;11.68;;
10230;SDS011;62604;49.432;8.680;2023-06-22T04:23:07;12.68;;;11.63;;
10230;SDS011;62604;49.432;8.680;2023-06-22T04:25:34;11.85;;;10.98;;
10230;SDS011;62604;49.432;8.680;2023-06-22T04:28:02;12.10;;;11.20;;
10230;SDS011;62604;49.432;8.680;2023-06-22T04:30:29;12.88;;;11.60;;
10230;SDS011;62604;49.432;8.680;2023-06-22T04:32:58;11.80;;;10.90;;
10230;SDS011;62604;49.432;8.680;2023-06-22T04:35:25;11.73;;;10.82;;
10230;SDS011;62604;49.432;8.680;2023-06-22T04:37:58;11.63;;;10.73;;
10230;SDS011;62604;49.432;8.680;2023-06-22T04:40:28;11.65;;;10.65;;
10230;SDS011;62604;49.432;8.680;2023-06-22T04:42:56;11.23;;;10.32;;
10230;SDS011;62604;49.432;8.680;2023-06-22T04:45:28;11.63;;;10.63;;
10230;SDS011;62604;49.432;8.680;2023-06-22T04:47:55;11.43;;;10.43;;
10230;SDS011;62604;49.432;8.680;2023-06-22T04:50:24;11.43;;;10.55;;
10230;SDS011;62604;49.432;8.680;2023-06-22T04:52:52;12.15;;;11.05;;
10230;SDS011;62604;49.432;8.680;2023-06-22T04:55:20;11.75;;;10.82;;
10230;SDS011;62604;49.432;8.680;2023-06-22T04:57:48;12.27;;;11.15;;
10230;SDS011;62604;49.432;8.680;2023-06-22T05:00:15;12.07;;;10.98;;
10230;SDS011;62604;49.432;8.680;2023-06-22T05:02:55;11.63;;;10.68;;
10230;SDS011;62604;49.432;8.680;2023-06-22T05:05:23;11.30;;;10.43;;
10230;SDS011;62604;49.432;8.680;2023-06-22T05:07:51;11.32;;;10.43;;
10230;SDS011;62604;49.432;8.680;2023-06-22T05:10:21;11.30;;;10.50;;
10230;SDS011;62604;49.432;8.680;2023-06-22T05:12:48;11.52;;;10.52;;
10230;SDS011;62604;49.432;8.680;2023-06-22T05:15:15;11.18;;;10.38;;
10230;SDS011;62604;49.432;8.680;2023-06-22T05:17:44;11.63;;;10.73;;
10230;SDS011;62604;49.432;8.680;2023-06-22T05:20:11;12.20;;;11.20;;
10230;SDS011;62604;49.432;8.680;2023-06-22T05:22:39;11.20;;;10.40;;
10230;SDS011;62604;49.432;8.680;2023-06-22T05:25:07;12.32;;;11.07;;
10230;SDS011;62604;49.432;8.680;2023-06-22T05:27:37;11.35;;;10.55;;
10230;SDS011;62604;49.432;8.680;2023-06-22T05:30:05;11.45;;;10.55;;
10230;SDS011;62604;49.432;8.680;2023-06-22T05:32:35;11.00;;;10.20;;
10230;SDS011;62604;49.432;8.680;2023-06-22T05:35:04;11.73;;;10.82;;
10230;SDS011;62604;49.432;8.680;2023-06-22T05:37:31;11.05;;;10.23;;
10230;SDS011;62604;49.432;8.680;2023-06-22T05:39:58;11.60;;;10.70;;
10230;SDS011;62604;49.432;8.680;2023-06-22T05:42:25;11.77;;;10.77;;
10230;SDS011;62604;49.432;8.680;2023-06-22T05:44:53;12.00;;;10.90;;
10230;SDS011;62604;49.432;8.680;2023-06-22T05:47:20;11.07;;;10.27;;
10230;SDS011;62604;49.432;8.680;2023-06-22T05:49:48;12.25;;;11.25;;
10230;SDS011;62604;49.432;8.680;2023-06-22T05:52:14;11.15;;;10.32;;
10230;SDS011;62604;49.432;8.680;2023-06-22T05:54:42;11.85;;;10.95;;
10230;SDS011;62604;49.432;8.680;2023-06-22T05:57:08;11.32;;;10.43;;
10230;SDS011;62604;49.432;8.680;2023-06-22T05:59:35;11.80;;;10.90;;
10230;SDS011;62604;49.432;8.680;2023-06-22T06:02:04;11.63;;;10.82;;
10230;SDS011;62604;49.432;8.680;2023-06-22T06:04:31;12.65;;;11.68;;
10230;SDS011;62604;49.432;8.680;2023-06-22T06:06:58;12.10;;;11.20;;
10230;SDS011;62604;49.432;8.680;2023-06-22T06:09:26;11.05;;;10.25;;
10230;SDS011;62604;49.432;8.680;2023-06-22T06:11:53;11.60;;;10.70;;
10230;SDS011;62604;49.432;8.680;2023-06-22T06:14:20;12.05;;;11.15;;
10230;SDS011;62604;49.432;8.680;2023-06-22T06:16:47;12.88;;;11.80;;
10230;SDS011;62604;49.432;8.680;2023-06-22T06:19:16;12.00;;;11.10;;
10230;SDS011;62604;49.432;8.680;2023-06-22T06:21:42;11.90;;;10.85;;
10230;SDS011;62604;49.432;8.680;2023-06-22T06:24:09;12.23;;;11.32;;
10230;SDS011;62604;49.432;8.680;2023-06-22T06:26:37;11.80;;;10.93;;
10230;SDS011;62604;49.432;8.680;2023-06-22T06:29:04;8.88;;;8.18;;
10230;SDS011;62604;49.432;8.680;2023-06-22T06:31:31;11.88;;;11.00;;
10230;SDS011;62604;49.432;8.680;2023-06-22T06:33:58;12.35;;;11.45;;
10230;SDS011;62604;49.432;8.680;2023-06-22T06:36:26;8.10;;;7.53;;
10230;SDS011;62604;49.432;8.680;2023-06-22T06:38:53;7.75;;;7.15;;
10230;SDS011;62604;49.432;8.680;2023-06-22T06:41:22;7.95;;;7.13;;
10230;SDS011;62604;49.432;8.680;2023-06-22T06:43:50;7.65;;;6.97;;
10230;SDS011;62604;49.432;8.680;2023-06-22T06:46:18;7.40;;;6.70;;
10230;SDS011;62604;49.432;8.680;2023-06-22T06:48:45;7.55;;;7.05;;
10230;SDS011;62604;49.432;8.680;2023-06-22T06:51:15;8.55;;;7.70;;
10230;SDS011;62604;49.432;8.680;2023-06-22T06:53:43;8.05;;;7.47;;
10230;SDS011;62604;49.432;8.680;2023-06-22T06:56:10;8.27;;;7.57;;
10230;SDS011;62604;49.432;8.680;2023-06-22T06:58:40;8.60;;;7.82;;
10230;SDS011;62604;49.432;8.680;2023-06-22T07:01:07;8.32;;;7.72;;
10230;SDS011;62604;49.432;8.680;2023-06-22T07:03:34;12.30;;;11.40;;
10230;SDS011;62604;49.432;8.680;2023-06-22T07:06:01;12.43;;;11.43;;
10230;SDS011;62604;49.432;8.680;2023-06-22T07:08:27;12.15;;;11.25;;
10230;SDS011;62604;49.432;8.680;2023-06-22T07:10:56;9.80;;;8.93;;
10230;SDS011;62604;49.432;8.680;2023-06-22T07:13:23;12.18;;;11.27;;
10230;SDS011;62604;49.432;8.680;2023-06-22T07:15:50;10.73;;;9.93;;
10230;SDS011;62604;49.432;8.680;2023-06-22T07:18:16;10.48;;;9.68;;
10230;SDS011;62604;49.432;8.680;2023-06-22T07:20:43;10.48;;;9.70;;
10230;SDS011;62604;49.432;8.680;2023-06-22T07:23:10;9.98;;;9.27;;
10230;SDS011;62604;49.432;8.680;2023-06-22T07:25:37;11.68;;;10.88;;
10230;SDS011;62604;49.432;8.680;2023-06-22T07:28:06;11.30;;;10.30;;
10230;SDS011;62604;49.432;8.680;2023-06-22T07:30:33;10.55;;;9.75;;
10230;SDS011;62604;49.432;8.680;2023-06-22T07:33:00;10.98;;;10.20;;
10230;SDS011;62604;49.432;8.680;2023-06-22T07:35:29;10.88;;;9.90;;
10230;SDS011;62604;49.432;8.680;2023-06-22T07:37:56;10.52;;;9.77;;
10230;SDS011;62604;49.432;8.680;2023-06-22T07:40:23;10.68;;;9.98;;
10230;SDS011;62604;49.432;8.680;2023-06-22T07:42:49;10.98;;;10.18;;
10230;SDS011;62604;49.432;8.680;2023-06-22T07:45:20;11.10;;;10.30;;
10230;SDS011;62604;49.432;8.680;2023-06-22T07:47:47;11.23;;;10.43;;
10230;SDS011;62604;49.432;8.680;2023-06-22T07:50:13;11.10;;;10.32;;
10230;SDS011;62604;49.432;8.680;2023-06-22T07:52:40;11.05;;;10.25;;
10230;SDS011;62604;49.432;8.680;2023-06-22T07:55:08;11.27;;;10.38;;
10230;SDS011;62604;49.432;8.680;2023-06-22T07:57:34;11.20;;;10.18;;
10230;SDS011;62604;49.432;8.680;2023-06-22T08:00:02;11.05;;;10.35;;
10230;SDS011;62604;49.432;8.680;2023-06-22T08:02:37;11.35;;;10.48;;
10230;SDS011;62604;49.432;8.680;2023-06-22T08:05:05;10.98;;;10.20;;
10230;SDS011;62604;49.432;8.680;2023-06-22T08:07:33;11.30;;;10.50;;
10230;SDS011;62604;49.432;8.680;2023-06-22T08:10:00;10.80;;;10.00;;
10230;SDS011;62604;49.432;8.680;2023-06-22T08:12:27;11.25;;;10.35;;
10230;SDS011;62604;49.432;8.680;2023-06-22T08:14:54;11.88;;;10.90;;
10230;SDS011;62604;49.432;8.680;2023-06-22T08:17:21;11.73;;;10.82;;
10230;SDS011;62604;49.432;8.680;2023-06-22T08:19:50;11.60;;;10.80;;
10230;SDS011;62604;49.432;8.680;2023-06-22T08:22:17;11.50;;;10.70;;
10230;SDS011;62604;49.432;8.680;2023-06-22T08:24:44;11.40;;;10.50;;
10230;SDS011;62604;49.432;8.680;2023-06-22T08:27:10;11.45;;;10.65;;
10230;SDS011;62604;49.432;8.680;2023-06-22T08:29:38;10.98;;;10.23;;
10230;SDS011;62604;49.432;8.680;2023-06-22T08:32:07;11.50;;;10.57;;
10230;SDS011;62604;49.432;8.680;2023-06-22T08:34:34;11.27;;;10.38;;
10230;SDS011;62604;49.432;8.680;2023-06-22T08:37:03;11.55;;;10.75;;
10230;SDS011;62604;49.432;8.680;2023-06-22T08:39:31;11.15;;;10.35;;
10230;SDS011;62604;49.432;8.680;2023-06-22T08:41:58;11.50;;;10.70;;
10230;SDS011;62604;49.432;8.680;2023-06-22T08:44:26;11.43;;;10.52;;
10230;SDS011;62604;49.432;8.680;2023-06-22T08:46:53;11.85;;;10.95;;
10230;SDS011;62604;49.432;8.680;2023-06-22T08:49:20;11.30;;;10.50;;
10230;SDS011;62604;49.432;8.680;2023-06-22T08:51:47;11.60;;;10.70;;
10230;SDS011;62604;49.432;8.680;2023-06-22T08:54:18;12.07;;;11.20;;
10230;SDS011;62604;49.432;8.680;2023-06-22T08:56:45;12.10;;;11.07;;
10230;SDS011;62604;49.432;8.680;2023-06-22T08:59:12;12.23;;;11.00;;
10230;SDS011;62604;49.432;8.680;2023-06-22T09:01:39;12.63;;;11.70;;
10230;SDS011;62604;49.432;8.680;2023-06-22T09:04:13;12.20;;;11.30;;
10230;SDS011;62604;49.432;8.680;2023-06-22T09:06:41;12.48;;;11.48;;
10230;SDS011;62604;49.432;8.680;2023-06-22T09:09:10;13.25;;;12.25;;
10230;SDS011;62604;49.432;8.680;2023-06-22T09:11:38;13.52;;;12.32;;
10230;SDS011;62604;49.432;8.680;2023-06-22T09:14:05;13.80;;;12.60;;
10230;SDS011;62604;49.432;8.680;2023-06-22T09:16:32;13.18;;;12.20;;
10230;SDS011;62604;49.432;8.680;2023-06-22T09:19:00;13.23;;;12.27;;
10230;SDS011;62604;49.432;8.680;2023-06-22T09:21:27;13.65;;;12.65;;
10230;SDS011;62604;49.432;8.680;2023-06-22T09:23:54;12.85;;;12.02;;
10230;SDS011;62604;49.432;8.680;2023-06-22T09:26:21;13.25;;;11.98;;
10230;SDS011;62604;49.432;8.680;2023-06-22T09:28:50;11.57;;;10.77;;
10230;SDS011;62604;49.432;8.680;2023-06-22T09:31:17;12.02;;;11.15;;
10230;SDS011;62604;49.432;8.680;2023-06-22T09:33:50;12.70;;;11.50;;
10230;SDS011;62604;49.432;8.680;2023-06-22T09:36:18;11.82;;;10.93;;
10230;SDS011;62604;49.432;8.680;2023-06-22T09:38:44;12.77;;;11.32;;
10230;SDS011;62604;49.432;8.680;2023-06-22T09:41:11;11.63;;;10.80;;
10230;SDS011;62604;49.432;8.680;2023-06-22T09:43:38;12.18;;;11.00;;
10230;SDS011;62604;49.432;8.680;2023-06-22T09:46:06;16.38;;;11.57;;
10230;SDS011;62604;49.432;8.680;2023-06-22T09:48:34;12.02;;;11.00;;
10230;SDS011;62604;49.432;8.680;2023-06-22T09:51:01;11.95;;;11.00;;
10230;SDS011;62604;49.432;8.680;2023-06-22T09:53:28;11.50;;;10.50;;
10230;SDS011;62604;49.432;8.680;2023-06-22T09:55:55;12.23;;;11.25;;
10230;SDS011;62604;49.432;8.680;2023-06-22T09:58:22;21.88;;;16.08;;
10230;SDS011;62604;49.432;8.680;2023-06-22T10:00:49;14.50;;;13.15;;
10230;SDS011;62604;49.432;8.680;2023-06-22T10:03:17;14.10;;;12.80;;
10230;SDS011;62604;49.432;8.680;2023-06-22T10:05:44;14.15;;;12.85;;
10230;SDS011;62604;49.432;8.680;2023-06-22T10:08:11;13.45;;;12.35;;
10230;SDS011;62604;49.432;8.680;2023-06-22T10:10:38;14.27;;;13.10;;
10230;SDS011;62604;49.432;8.680;2023-06-22T10:13:07;17.38;;;15.57;;
10230;SDS011;62604;49.432;8.680;2023-06-22T10:15:36;14.50;;;13.20;;
10230;SDS011;62604;49.432;8.680;2023-06-22T10:18:03;14.25;;;12.93;;
10230;SDS011;62604;49.432;8.680;2023-06-22T10:20:31;12.63;;;11.43;;
10230;SDS011;62604;49.432;8.680;2023-06-22T10:22:58;14.55;;;13.02;;
10230;SDS011;62604;49.432;8.680;2023-06-22T10:25:26;12.30;;;10.98;;
10230;SDS011;62604;49.432;8.680;2023-06-22T10:27:53;31.10;;;20.90;;
10230;SDS011;62604;49.432;8.680;2023-06-22T10:30:20;17.30;;;11.38;;
10230;SDS011;62604;49.432;8.680;2023-06-22T10:32:47;12.75;;;11.63;;
10230;SDS011;62604;49.432;8.680;2023-06-22T10:35:14;12.07;;;11.18;;
10230;SDS011;62604;49.432;8.680;2023-06-22T10:37:43;13.05;;;11.80;;
10230;SDS011;62604;49.432;8.680;2023-06-22T10:40:11;12.02;;;11.02;;
10230;SDS011;62604;49.432;8.680;2023-06-22T10:42:38;12.07;;;11.07;;
10230;SDS011;62604;49.432;8.680;2023-06-22T10:45:06;12.60;;;11.50;;
10230;SDS011;62604;49.432;8.680;2023-06-22T10:47:33;12.07;;;11.07;;
10230;SDS011;62604;49.432;8.680;2023-06-22T10:50:01;12.07;;;10.98;;
10230;SDS011;62604;49.432;8.680;2023-06-22T10:52:28;14.95;;;13.45;;
10230;SDS011;62604;49.432;8.680;2023-06-22T10:54:57;11.20;;;10.38;;
10230;SDS011;62604;49.432;8.680;2023-06-22T10:57:24;12.52;;;10.95;;
10230;SDS011;62604;49.432;8.680;2023-06-22T10:59:51;11.77;;;10.77;;
10230;SDS011;62604;49.432;8.680;2023-06-22T11:02:18;12.57;;;10.80;;
10230;SDS011;62604;49.432;8.680;2023-06-22T11:04:45;11.88;;;10.93;;
10230;SDS011;62604;49.432;8.680;2023-06-22T11:07:12;12.10;;;11.10;;
10230;SDS011;62604;49.432;8.680;2023-06-22T11:09:39;11.82;;;10.98;;
10230;SDS011;62604;49.432;8.680;2023-06-22T11:12:08;11.88;;;10.95;;
10230;SDS011;62604;49.432;8.680;2023-06-22T11:14:35;12.45;;;11.25;;
10230;SDS011;62604;49.432;8.680;2023-06-22T11:17:02;13.90;;;12.50;;
10230;SDS011;62604;49.432;8.680;2023-06-22T11:19:29;15.10;;;13.65;;
10230;SDS011;62604;49.432;8.680;2023-06-22T11:21:55;13.13;;;11.95;;
10230;SDS011;62604;49.432;8.680;2023-06-22T11:24:22;12.73;;;11.68;;
10230;SDS011;62604;49.432;8.680;2023-06-22T11:26:49;12.13;;;11.13;;
10230;SDS011;62604;49.432;8.680;2023-06-22T11:29:17;12.07;;;10.77;;
10230;SDS011;62604;49.432;8.680;2023-06-22T11:31:44;12.77;;;11.52;;
10230;SDS011;62604;49.432;8.680;2023-06-22T11:34:11;12.00;;;11.02;;
10230;SDS011;62604;49.432;8.680;2023-06-22T11:36:38;11.90;;;10.80;;
10230;SDS011;62604;49.432;8.680;2023-06-22T11:39:07;11.82;;;10.80;;
10230;SDS011;62604;49.432;8.680;2023-06-22T11:41:36;12.48;;;11.25;;
10230;SDS011;62604;49.432;8.680;2023-06-22T11:44:03;12.05;;;10.95;;
10230;SDS011;62604;49.432;8.680;2023-06-22T11:46:31;12.35;;;11.07;;
10230;SDS011;62604;49.432;8.680;2023-06-22T11:48:59;12.38;;;11.13;;
10230;SDS011;62604;49.432;8.680;2023-06-22T11:51:26;12.23;;;11.23;;
10230;SDS011;62604;49.432;8.680;2023-06-22T11:53:56;12.18;;;11.07;;
10230;SDS011;62604;49.432;8.680;2023-06-22T11:56:23;11.70;;;10.75;;
10230;SDS011;62604;49.432;8.680;2023-06-22T11:58:50;13.40;;;12.10;;
10230;SDS011;62604;49.432;8.680;2023-06-22T12:01:17;11.40;;;10.35;;
10230;SDS011;62604;49.432;8.680;2023-06-22T12:03:45;12.15;;;11.10;;
10230;SDS011;62604;49.432;8.680;2023-06-22T12:06:13;11.20;;;10.18;;
10230;SDS011;62604;49.432;8.680;2023-06-22T12:08:40;11.50;;;10.63;;
10230;SDS011;62604;49.432;8.680;2023-06-22T12:11:08;11.93;;;10.75;;
10230;SDS011;62604;49.432;8.680;2023-06-22T12:13:35;13.85;;;10.88;;
10230;SDS011;62604;49.432;8.680;2023-06-22T12:16:02;11.95;;;10.93;;
10230;SDS011;62604;49.432;8.680;2023-06-22T12:18:29;11.85;;;10.75;;
10230;SDS011;62604;49.432;8.680;2023-06-22T12:20:57;11.82;;;10.80;;
10230;SDS011;62604;49.432;8.680;2023-06-22T12:23:24;11.77;;;10.77;;
10230;SDS011;62604;49.432;8.680;2023-06-22T12:25:51;11.50;;;10.40;;
10230;SDS011;62604;49.432;8.680;2023-06-22T12:28:18;11.00;;;10.13;;
10230;SDS011;62604;49.432;8.680;2023-06-22T12:30:45;11.75;;;10.75;;
10230;SDS011;62604;49.432;8.680;2023-06-22T12:33:11;11.57;;;10.68;;
10230;SDS011;62604;49.432;8.680;2023-06-22T12:35:38;11.93;;;10.73;;
10230;SDS011;62604;49.432;8.680;2023-06-22T12:38:07;11.95;;;10.73;;
10230;SDS011;62604;49.432;8.680;2023-06-22T12:40:34;12.45;;;11.20;;
10230;SDS011;62604;49.432;8.680;2023-06-22T12:43:01;11.30;;;10.50;;
10230;SDS011;62604;49.432;8.680;2023-06-22T12:45:28;12.40;;;11.23;;
10230;SDS011;62604;49.432;8.680;2023-06-22T12:47:58;11.68;;;10.77;;
10230;SDS011;62604;49.432;8.680;2023-06-22T12:50:25;11.45;;;10.52;;
10230;SDS011;62604;49.432;8.680;2023-06-22T12:52:52;12.95;;;11.95;;
10230;SDS011;62604;49.432;8.680;2023-06-22T12:55:21;12.05;;;10.98;;
10230;SDS011;62604;49.432;8.680;2023-06-22T12:57:47;11.75;;;10.73;;
10230;SDS011;62604;49.432;8.680;2023-06-22T13:00:15;11.77;;;10.85;;
10230;SDS011;62604;49.432;8.680;2023-06-22T13:02:42;11.98;;;11.00;;
10230;SDS011;62604;49.432;8.680;2023-06-22T13:05:09;12.50;;;11.00;;
10230;SDS011;62604;49.432;8.680;2023-06-22T13:07:36;12.23;;;11.10;;
10230;SDS011;62604;49.432;8.680;2023-06-22T13:10:03;11.98;;;10.75;;
10230;SDS011;62604;49.432;8.680;2023-06-22T13:12:32;11.40;;;10.60;;
10230;SDS011;62604;49.432;8.680;2023-06-22T13:14:59;12.23;;;11.00;;
10230;SDS011;62604;49.432;8.680;2023-06-22T13:17:28;11.35;;;10.50;;
10230;SDS011;62604;49.432;8.680;2023-06-22T13:19:55;11.32;;;10.52;;
10230;SDS011;62604;49.432;8.680;2023-06-22T13:22:28;12.95;;;11.15;;
10230;SDS011;62604;49.432;8.680;2023-06-22T13:24:57;12.30;;;11.00;;
10230;SDS011;62604;49.432;8.680;2023-06-22T13:27:28;11.45;;;10.63;;
10230;SDS011;62604;49.432;8.680;2023-06-22T13:29:56;12.18;;;11.00;;
10230;SDS011;62604;49.432;8.680;2023-06-22T13:32:23;12.07;;;11.00;;
10230;SDS011;62604;49.432;8.680;2023-06-22T13:34:51;12.43;;;11.00;;
10230;SDS011;62604;49.432;8.680;2023-06-22T13:37:20;12.07;;;10.95;;
10230;SDS011;62604;49.432;8.680;2023-06-22T13:39:47;11.50;;;10.63;;
10230;SDS011;62604;49.432;8.680;2023-06-22T13:42:14;11.90;;;10.90;;
10230;SDS011;62604;49.432;8.680;2023-06-22T13:44:41;12.00;;;10.90;;
10230;SDS011;62604;49.432;8.680;2023-06-22T13:47:10;12.40;;;11.10;;
10230;SDS011;62604;49.432;8.680;2023-06-22T13:49:36;12.40;;;10.45;;
10230;SDS011;62604;49.432;8.680;2023-06-22T13:52:04;11.65;;;10.75;;
10230;SDS011;62604;49.432;8.680;2023-06-22T13:54:35;11.80;;;10.68;;
10230;SDS011;62604;49.432;8.680;2023-06-22T13:57:02;12.15;;;11.05;;
10230;SDS011;62604;49.432;8.680;2023-06-22T13:59:29;11.95;;;10.85;;
10230;SDS011;62604;49.432;8.680;2023-06-22T14:01:56;11.80;;;10.90;;
10230;SDS011;62604;49.432;8.680;2023-06-22T14:04:24;14.48;;;10.60;;
10230;SDS011;62604;49.432;8.680;2023-06-22T14:06:51;12.20;;;11.00;;
10230;SDS011;62604;49.432;8.680;2023-06-22T14:09:18;10.90;;;10.20;;
10230;SDS011;62604;49.432;8.680;2023-06-22T14:11:45;11.70;;;10.70;;
10230;SDS011;62604;49.432;8.680;2023-06-22T14:14:12;12.27;;;11.13;;
10230;SDS011;62604;49.432;8.680;2023-06-22T14:16:39;12.65;;;10.82;;
10230;SDS011;62604;49.432;8.680;2023-06-22T14:19:05;11.35;;;10.60;;
10230;SDS011;62604;49.432;8.680;2023-06-22T14:21:34;11.93;;;10.98;;
10230;SDS011;62604;49.432;8.680;2023-06-22T14:24:01;12.18;;;10.90;;
10230;SDS011;62604;49.432;8.680;2023-06-22T14:26:29;13.25;;;12.18;;